CST,Max TemperatureF,Mean TemperatureF,Min TemperatureF,Max Dew PointF,MeanDew PointF,Min DewpointF,Max Humidity, Mean Humidity, Min Humidity, Max Sea Level PressureIn, Mean Sea Level PressureIn, Min Sea Level PressureIn, Max VisibilityMiles, Mean VisibilityMiles, Min VisibilityMiles, Max Wind SpeedMPH, Mean Wind SpeedMPH, Max Gust SpeedMPH,PrecipitationIn, CloudCover, Events, WindDirDegrees
2013-11-1,60,48,37,41,37,34,89,72,39,30.03,29.86,29.66,10,10,7,24,11,50,0.02,2,Rain,301
2013-11-2,58,45,32,36,32,29,93,67,34,30.22,30.13,30.04,10,10,10,12,8,16,0.00,0,,267
2013-11-3,57,48,39,38,34,30,74,57,42,30.09,29.88,29.72,10,10,10,29,15,40,0.00,0,,161
2013-11-4,57,48,39,44,39,34,83,66,46,30.12,29.94,29.76,10,10,2,17,11,25,0.00,2,,79
2013-11-5,56,46,35,56,42,33,100,91,74,30.11,29.96,29.78,10,6,2,22,9,29,1.53,8,Rain,41
2013-11-6,42,36,30,34,32,29,95,85,66,30.30,30.22,30.07,10,10,7,23,12,26,0.10,5,,291
2013-11-7,51,39,27,32,27,23,96,71,34,30.42,30.35,30.26,10,10,10,16,5,22,0.01,0,,300
2013-11-8,64,50,35,35,32,26,80,54,30,30.25,29.95,29.75,10,10,10,30,11,38,0.00,0,,183
2013-11-9,63,46,30,36,32,29,94,65,31,30.34,30.14,29.95,10,10,10,18,4,22,0.00,1,,351
2013-11-10,54,42,29,39,32,27,95,68,43,30.40,30.30,30.17,10,10,5,14,4,,0.00,2,,159
2013-11-11,46,34,21,45,28,10,100,75,51,30.75,30.38,30.12,10,9,0,25,11,34,0.00,3,Fog,4
2013-11-12,33,22,10,12,10,5,87,62,30,30.88,30.76,30.58,10,10,10,13,7,21,0.00,0,,271
2013-11-13,53,38,23,28,20,11,68,51,35,30.58,30.28,30.02,10,10,10,23,14,32,0.00,0,,195
2013-11-14,55,42,30,32,26,20,85,54,38,30.01,29.94,29.90,10,10,10,16,10,24,0.00,0,,210
2013-11-15,57,41,25,45,34,24,94,74,45,29.91,29.77,29.58,10,10,10,17,5,23,0.00,0,,161
2013-11-16,65,52,40,51,39,26,91,62,25,29.58,29.41,29.34,10,10,10,22,12,32,0.00,1,,188
2013-11-17,58,45,32,40,33,29,91,57,32,30.09,29.65,29.26,10,10,10,30,12,39,0.00,1,,306
2013-11-18,57,40,24,32,25,21,93,60,28,30.27,30.19,30.09,10,10,10,15,5,16,0.00,0,,216
2013-11-19,62,48,33,33,26,23,73,45,26,30.18,30.00,29.86,10,10,10,26,13,34,0.00,1,,169
2013-11-20,62,51,39,40,35,25,93,56,37,29.90,29.81,29.73,10,10,10,20,12,25,0.00,0,Thunderstorm,165
2013-11-21,40,30,21,38,24,16,99,83,76,30.56,30.25,29.91,10,10,2,30,16,37,0.00,7,Snow,356
2013-11-22,30,22,14,17,13,9,83,70,47,30.70,30.62,30.56,10,10,10,23,12,26,0.00,1,,333
2013-11-23,24,18,12,16,9,2,83,63,42,30.85,30.75,30.62,10,10,10,17,9,23,0.00,0,,22
2013-11-24,30,21,12,11,8,6,77,57,38,30.73,30.48,30.22,10,10,10,17,8,24,0.00,2,,176
2013-11-25,43,34,25,28,20,11,85,66,51,30.22,30.17,30.13,10,10,10,15,9,18,0.00,4,,247
2013-11-26,35,24,11,24,14,6,90,68,30,30.43,30.33,30.21,10,10,10,29,10,34,0.00,1,,332
2013-11-27,34,20,7,17,11,4,87,63,41,30.43,30.26,30.06,10,10,10,17,6,22,0.00,0,,205
2013-11-28,34,25,15,22,17,11,89,71,48,30.47,30.32,30.09,10,10,10,16,6,23,0.00,2,,349
2013-11-29,50,32,15,27,21,11,84,63,38,30.46,30.30,30.14,10,10,10,16,6,22,0.00,0,,153
2013-11-30,59,40,21,32,25,18,88,65,32,30.14,30.10,30.05,10,10,3,7,3,,0.00,0,,239